This is the latest recevied weather packets stored in our database for station/object DL8BGD. If no packets are shown the sender has not sent any weather packets the latest 10 day(s).
| Time | Temp. | Humidity | Pressure | Rain* | Wind** | Luminosity | Snow |
|---|---|---|---|---|---|---|---|
| 1788286011 | 18.89° C | 63% | 1025.5 hPa | 0 mm | - | - | - |
| 1788285410 | 19.44° C | 63% | 1025.4 hPa | 0 mm | - | - | - |
| 1788284810 | 19.44° C | 62% | 1025.4 hPa | 0 mm | - | - | - |
| 1788284209 | 19.44° C | 62% | 1025.3 hPa | 0 mm | - | - | - |
| 1788283609 | 19.44° C | 60% | 1025.3 hPa | 0 mm | - | - | - |
| 1788283009 | 20° C | 59% | 1025.3 hPa | 0 mm | - | - | - |
| 1788282408 | 20.56° C | 57% | 1025.1 hPa | 0 mm | - | - | - |
| 1788281808 | 21.11° C | 56% | 1025.1 hPa | 0 mm | - | - | - |
| 1788281210 | 21.11° C | 56% | 1025 hPa | 0 mm | - | - | - |
| 1788280607 | 21.67° C | 55% | 1024.9 hPa | 0 mm | - | - | - |
| 1788280007 | 22.22° C | 53% | 1025 hPa | 0 mm | - | - | - |
| 1788279407 | 22.22° C | 49% | 1025 hPa | 0 mm | - | - | - |
| 1788278826 | 22.78° C | 48% | 1025 hPa | 0 mm | - | - | - |
| 1788278206 | 22.78° C | 44% | 1025 hPa | 0 mm | - | - | - |
| 1788118247 | 18.89° C | 70% | 1020.9 hPa | 0 mm | - | - | - |
| 1788117648 | 18.89° C | 70% | 1020.8 hPa | 0 mm | - | - | - |
| 1788117046 | 18.89° C | 69% | 1020.6 hPa | 0 mm | - | - | - |
| 1788116484 | 19.44° C | 68% | 1020.6 hPa | 0 mm | - | - | - |
| 1788116446 | 19.44° C | 68% | 1020.6 hPa | 0 mm | - | - | - |
| 1788115846 | 19.44° C | 67% | 1020.6 hPa | 0 mm | - | - | - |
| 1788115245 | 20° C | 67% | 1020.5 hPa | 0 mm | - | - | - |
| 1788114645 | 20° C | 66% | 1020.3 hPa | 0 mm | - | - | - |
| 1788114045 | 20.56° C | 65% | 1020.2 hPa | 0 mm | - | - | - |
| 1788113444 | 20.56° C | 65% | 1019.9 hPa | 0 mm | - | - | - |
| 1788112844 | 21.11° C | 64% | 1019.9 hPa | 0 mm | - | - | - |
* Rain since midnight (hover to see other rain measurements)
** Current wind speed in m/s (hover to see current wind gust speed)